sensor_id;sensor_type;location;lat;lon;timestamp;temperature;humidity
45761;DHT22;31471;51.040;14.414;2023-02-24T00:02:03;7.90;99.90
45761;DHT22;31471;51.040;14.414;2023-02-24T00:04:37;7.90;99.90
45761;DHT22;31471;51.040;14.414;2023-02-24T00:07:04;8.00;99.90
45761;DHT22;31471;51.040;14.414;2023-02-24T00:09:31;7.90;99.90
45761;DHT22;31471;51.040;14.414;2023-02-24T00:12:15;7.80;99.90
45761;DHT22;31471;51.040;14.414;2023-02-24T00:14:43;7.90;99.90
45761;DHT22;31471;51.040;14.414;2023-02-24T00:17:11;7.80;99.90
45761;DHT22;31471;51.040;14.414;2023-02-24T00:19:38;7.80;99.90
45761;DHT22;31471;51.040;14.414;2023-02-24T00:22:06;7.80;99.90
45761;DHT22;31471;51.040;14.414;2023-02-24T00:24:32;7.80;99.90
45761;DHT22;31471;51.040;14.414;2023-02-24T00:27:00;7.80;99.90
45761;DHT22;31471;51.040;14.414;2023-02-24T00:29:28;7.80;99.90
45761;DHT22;31471;51.040;14.414;2023-02-24T00:31:55;7.80;99.90
45761;DHT22;31471;51.040;14.414;2023-02-24T00:34:28;7.80;99.90
45761;DHT22;31471;51.040;14.414;2023-02-24T00:36:56;7.80;99.90
45761;DHT22;31471;51.040;14.414;2023-02-24T00:39:21;7.80;99.90
45761;DHT22;31471;51.040;14.414;2023-02-24T00:41:53;7.80;99.90
45761;DHT22;31471;51.040;14.414;2023-02-24T00:44:22;7.80;99.90
45761;DHT22;31471;51.040;14.414;2023-02-24T00:46:48;7.80;99.90
45761;DHT22;31471;51.040;14.414;2023-02-24T00:49:17;7.80;99.90
45761;DHT22;31471;51.040;14.414;2023-02-24T00:51:46;7.80;99.90
45761;DHT22;31471;51.040;14.414;2023-02-24T00:54:13;7.70;99.90
45761;DHT22;31471;51.040;14.414;2023-02-24T00:56:41;7.70;99.90
45761;DHT22;31471;51.040;14.414;2023-02-24T00:59:08;7.70;99.90
45761;DHT22;31471;51.040;14.414;2023-02-24T01:01:34;7.70;99.90
45761;DHT22;31471;51.040;14.414;2023-02-24T01:04:01;7.70;99.90
45761;DHT22;31471;51.040;14.414;2023-02-24T01:06:31;7.70;99.90
45761;DHT22;31471;51.040;14.414;2023-02-24T01:08:56;7.70;99.90
45761;DHT22;31471;51.040;14.414;2023-02-24T01:11:24;7.70;99.90
45761;DHT22;31471;51.040;14.414;2023-02-24T01:14:15;7.70;99.90
45761;DHT22;31471;51.040;14.414;2023-02-24T01:16:41;7.70;99.90
45761;DHT22;31471;51.040;14.414;2023-02-24T01:19:09;7.80;99.90
45761;DHT22;31471;51.040;14.414;2023-02-24T01:21:35;7.70;99.90
45761;DHT22;31471;51.040;14.414;2023-02-24T01:24:01;7.80;99.90
45761;DHT22;31471;51.040;14.414;2023-02-24T01:26:27;7.70;99.90
45761;DHT22;31471;51.040;14.414;2023-02-24T01:28:53;7.70;99.90
45761;DHT22;31471;51.040;14.414;2023-02-24T01:31:20;7.70;99.90
45761;DHT22;31471;51.040;14.414;2023-02-24T01:33:50;7.60;99.90
45761;DHT22;31471;51.040;14.414;2023-02-24T01:36:24;7.60;99.90
45761;DHT22;31471;51.040;14.414;2023-02-24T01:38:50;7.60;99.90
45761;DHT22;31471;51.040;14.414;2023-02-24T01:41:26;7.50;99.90
45761;DHT22;31471;51.040;14.414;2023-02-24T01:44:04;7.50;99.90
45761;DHT22;31471;51.040;14.414;2023-02-24T01:46:39;7.60;99.90
45761;DHT22;31471;51.040;14.414;2023-02-24T01:49:09;7.60;99.90
45761;DHT22;31471;51.040;14.414;2023-02-24T01:51:40;7.60;99.90
45761;DHT22;31471;51.040;14.414;2023-02-24T01:54:10;7.60;99.90
45761;DHT22;31471;51.040;14.414;2023-02-24T01:56:36;7.60;99.90
45761;DHT22;31471;51.040;14.414;2023-02-24T01:59:04;7.60;99.90
45761;DHT22;31471;51.040;14.414;2023-02-24T02:01:30;7.60;99.90
45761;DHT22;31471;51.040;14.414;2023-02-24T02:04:13;7.60;99.90
45761;DHT22;31471;51.040;14.414;2023-02-24T02:06:42;7.60;99.90
45761;DHT22;31471;51.040;14.414;2023-02-24T02:09:10;7.60;99.90
45761;DHT22;31471;51.040;14.414;2023-02-24T02:11:38;7.50;99.90
45761;DHT22;31471;51.040;14.414;2023-02-24T02:14:04;7.50;99.90
45761;DHT22;31471;51.040;14.414;2023-02-24T02:16:44;7.50;99.90
45761;DHT22;31471;51.040;14.414;2023-02-24T02:25:10;7.50;99.90
45761;DHT22;31471;51.040;14.414;2023-02-24T02:28:08;7.50;99.90
45761;DHT22;31471;51.040;14.414;2023-02-24T02:30:53;7.40;99.90
45761;DHT22;31471;51.040;14.414;2023-02-24T02:33:49;7.30;99.90
45761;DHT22;31471;51.040;14.414;2023-02-24T02:39:13;7.20;99.90
45761;DHT22;31471;51.040;14.414;2023-02-24T02:42:09;7.30;99.90
45761;DHT22;31471;51.040;14.414;2023-02-24T02:45:01;7.40;99.90
45761;DHT22;31471;51.040;14.414;2023-02-24T02:48:05;7.30;99.90
45761;DHT22;31471;51.040;14.414;2023-02-24T02:53:25;7.30;99.90
45761;DHT22;31471;51.040;14.414;2023-02-24T02:56:02;7.30;99.90
45761;DHT22;31471;51.040;14.414;2023-02-24T02:58:36;7.30;99.90
45761;DHT22;31471;51.040;14.414;2023-02-24T03:01:02;7.20;99.90
45761;DHT22;31471;51.040;14.414;2023-02-24T03:03:35;7.20;99.90
45761;DHT22;31471;51.040;14.414;2023-02-24T03:06:23;7.20;99.90
45761;DHT22;31471;51.040;14.414;2023-02-24T03:09:04;7.20;99.90
45761;DHT22;31471;51.040;14.414;2023-02-24T03:11:46;7.10;99.90
45761;DHT22;31471;51.040;14.414;2023-02-24T03:14:15;7.00;99.90
45761;DHT22;31471;51.040;14.414;2023-02-24T03:16:43;7.10;99.90
45761;DHT22;31471;51.040;14.414;2023-02-24T03:19:12;7.10;99.90
45761;DHT22;31471;51.040;14.414;2023-02-24T03:21:43;7.10;99.90
45761;DHT22;31471;51.040;14.414;2023-02-24T03:24:13;7.10;99.90
45761;DHT22;31471;51.040;14.414;2023-02-24T03:26:49;7.00;99.90
45761;DHT22;31471;51.040;14.414;2023-02-24T03:29:25;6.90;99.90
45761;DHT22;31471;51.040;14.414;2023-02-24T03:32:01;6.90;99.90
45761;DHT22;31471;51.040;14.414;2023-02-24T03:37:19;6.90;99.90
45761;DHT22;31471;51.040;14.414;2023-02-24T03:40:05;6.70;99.90
45761;DHT22;31471;51.040;14.414;2023-02-24T03:42:47;6.80;99.90
45761;DHT22;31471;51.040;14.414;2023-02-24T03:45:16;6.80;99.90
45761;DHT22;31471;51.040;14.414;2023-02-24T03:47:42;6.70;99.90
45761;DHT22;31471;51.040;14.414;2023-02-24T03:50:17;6.70;99.90
45761;DHT22;31471;51.040;14.414;2023-02-24T03:52:58;6.80;99.90
45761;DHT22;31471;51.040;14.414;2023-02-24T04:01:17;6.80;99.90
45761;DHT22;31471;51.040;14.414;2023-02-24T04:03:54;6.70;99.90
45761;DHT22;31471;51.040;14.414;2023-02-24T04:06:51;6.60;99.90
45761;DHT22;31471;51.040;14.414;2023-02-24T04:09:25;6.70;99.90
45761;DHT22;31471;51.040;14.414;2023-02-24T04:17:27;6.70;99.90
45761;DHT22;31471;51.040;14.414;2023-02-24T04:19:57;6.60;99.90
45761;DHT22;31471;51.040;14.414;2023-02-24T04:22:25;6.60;99.90
45761;DHT22;31471;51.040;14.414;2023-02-24T04:24:55;6.70;99.90
45761;DHT22;31471;51.040;14.414;2023-02-24T04:27:23;6.70;99.90
45761;DHT22;31471;51.040;14.414;2023-02-24T04:29:53;6.60;99.90
45761;DHT22;31471;51.040;14.414;2023-02-24T04:32:23;6.50;99.90
45761;DHT22;31471;51.040;14.414;2023-02-24T04:34:50;6.40;99.90
45761;DHT22;31471;51.040;14.414;2023-02-24T04:37:17;6.40;99.90
45761;DHT22;31471;51.040;14.414;2023-02-24T04:39:47;6.30;99.90
45761;DHT22;31471;51.040;14.414;2023-02-24T04:42:21;6.40;99.90
45761;DHT22;31471;51.040;14.414;2023-02-24T04:44:47;6.40;99.90
45761;DHT22;31471;51.040;14.414;2023-02-24T04:47:12;6.40;99.90
45761;DHT22;31471;51.040;14.414;2023-02-24T04:49:38;6.20;99.90
45761;DHT22;31471;51.040;14.414;2023-02-24T04:52:06;6.30;99.90
45761;DHT22;31471;51.040;14.414;2023-02-24T04:54:33;6.30;99.90
45761;DHT22;31471;51.040;14.414;2023-02-24T04:56:59;6.20;99.90
45761;DHT22;31471;51.040;14.414;2023-02-24T04:59:26;6.30;99.90
45761;DHT22;31471;51.040;14.414;2023-02-24T05:01:52;6.30;99.90
45761;DHT22;31471;51.040;14.414;2023-02-24T05:04:18;6.20;99.90
45761;DHT22;31471;51.040;14.414;2023-02-24T05:06:44;6.10;99.90
45761;DHT22;31471;51.040;14.414;2023-02-24T05:09:15;6.10;99.90
45761;DHT22;31471;51.040;14.414;2023-02-24T05:11:44;6.10;99.90
45761;DHT22;31471;51.040;14.414;2023-02-24T05:14:12;6.00;99.90
45761;DHT22;31471;51.040;14.414;2023-02-24T05:16:41;6.00;99.90
45761;DHT22;31471;51.040;14.414;2023-02-24T05:19:08;5.90;99.90
45761;DHT22;31471;51.040;14.414;2023-02-24T05:21:52;5.90;99.90
45761;DHT22;31471;51.040;14.414;2023-02-24T05:24:18;6.00;99.90
45761;DHT22;31471;51.040;14.414;2023-02-24T05:26:43;6.00;99.90
45761;DHT22;31471;51.040;14.414;2023-02-24T05:29:10;6.00;99.90
45761;DHT22;31471;51.040;14.414;2023-02-24T05:31:36;6.00;99.90
45761;DHT22;31471;51.040;14.414;2023-02-24T05:34:05;5.80;99.90
45761;DHT22;31471;51.040;14.414;2023-02-24T05:36:37;5.70;99.90
45761;DHT22;31471;51.040;14.414;2023-02-24T05:39:05;5.80;99.90
45761;DHT22;31471;51.040;14.414;2023-02-24T05:41:33;5.80;99.90
45761;DHT22;31471;51.040;14.414;2023-02-24T05:44:15;5.80;99.90
45761;DHT22;31471;51.040;14.414;2023-02-24T05:46:43;5.80;99.90
45761;DHT22;31471;51.040;14.414;2023-02-24T05:49:14;5.80;99.90
45761;DHT22;31471;51.040;14.414;2023-02-24T05:51:45;5.70;99.90
45761;DHT22;31471;51.040;14.414;2023-02-24T05:54:19;5.70;99.90
45761;DHT22;31471;51.040;14.414;2023-02-24T05:56:45;5.80;99.90
45761;DHT22;31471;51.040;14.414;2023-02-24T05:59:12;5.80;99.90
45761;DHT22;31471;51.040;14.414;2023-02-24T06:01:42;5.80;99.90
45761;DHT22;31471;51.040;14.414;2023-02-24T06:04:12;5.80;99.90
45761;DHT22;31471;51.040;14.414;2023-02-24T06:06:46;5.80;99.90
45761;DHT22;31471;51.040;14.414;2023-02-24T06:09:17;5.70;99.90
45761;DHT22;31471;51.040;14.414;2023-02-24T06:11:44;5.80;99.90
45761;DHT22;31471;51.040;14.414;2023-02-24T06:14:11;5.80;99.90
45761;DHT22;31471;51.040;14.414;2023-02-24T06:16:38;5.80;99.90
45761;DHT22;31471;51.040;14.414;2023-02-24T06:19:05;5.60;99.90
45761;DHT22;31471;51.040;14.414;2023-02-24T06:21:30;5.60;99.90
45761;DHT22;31471;51.040;14.414;2023-02-24T06:23:57;5.70;99.90
45761;DHT22;31471;51.040;14.414;2023-02-24T06:26:24;5.70;99.90
45761;DHT22;31471;51.040;14.414;2023-02-24T06:28:55;5.60;99.90
45761;DHT22;31471;51.040;14.414;2023-02-24T06:31:20;5.70;99.90
45761;DHT22;31471;51.040;14.414;2023-02-24T06:33:47;5.70;99.90
45761;DHT22;31471;51.040;14.414;2023-02-24T06:36:13;5.70;99.90
45761;DHT22;31471;51.040;14.414;2023-02-24T06:38:39;5.70;99.90
45761;DHT22;31471;51.040;14.414;2023-02-24T06:41:05;5.80;99.90
45761;DHT22;31471;51.040;14.414;2023-02-24T06:43:36;5.80;99.90
45761;DHT22;31471;51.040;14.414;2023-02-24T06:46:03;5.80;99.90
45761;DHT22;31471;51.040;14.414;2023-02-24T06:48:30;5.80;99.90
45761;DHT22;31471;51.040;14.414;2023-02-24T06:51:05;5.90;99.90
45761;DHT22;31471;51.040;14.414;2023-02-24T06:53:32;5.80;99.90
45761;DHT22;31471;51.040;14.414;2023-02-24T06:56:05;5.70;99.90
45761;DHT22;31471;51.040;14.414;2023-02-24T06:58:43;5.70;99.90
45761;DHT22;31471;51.040;14.414;2023-02-24T07:01:14;5.50;99.90
45761;DHT22;31471;51.040;14.414;2023-02-24T07:03:41;5.20;99.90
45761;DHT22;31471;51.040;14.414;2023-02-24T07:06:12;5.20;99.90
45761;DHT22;31471;51.040;14.414;2023-02-24T07:08:51;5.00;99.90
45761;DHT22;31471;51.040;14.414;2023-02-24T07:11:18;5.00;99.90
45761;DHT22;31471;51.040;14.414;2023-02-24T07:13:45;4.90;99.90
45761;DHT22;31471;51.040;14.414;2023-02-24T07:16:17;4.80;99.90
45761;DHT22;31471;51.040;14.414;2023-02-24T07:18:44;4.60;99.90
45761;DHT22;31471;51.040;14.414;2023-02-24T07:21:14;4.50;99.90
45761;DHT22;31471;51.040;14.414;2023-02-24T07:23:42;4.40;99.90
45761;DHT22;31471;51.040;14.414;2023-02-24T07:26:13;4.20;99.90
45761;DHT22;31471;51.040;14.414;2023-02-24T07:28:40;4.30;99.90
45761;DHT22;31471;51.040;14.414;2023-02-24T07:31:11;4.40;99.90
45761;DHT22;31471;51.040;14.414;2023-02-24T07:33:38;4.40;99.90
45761;DHT22;31471;51.040;14.414;2023-02-24T07:36:07;4.40;99.90
45761;DHT22;31471;51.040;14.414;2023-02-24T07:38:37;4.20;99.90
45761;DHT22;31471;51.040;14.414;2023-02-24T07:41:05;4.20;99.90
45761;DHT22;31471;51.040;14.414;2023-02-24T07:43:32;4.10;99.90
45761;DHT22;31471;51.040;14.414;2023-02-24T07:46:10;4.00;99.90
45761;DHT22;31471;51.040;14.414;2023-02-24T07:48:37;4.00;99.90
45761;DHT22;31471;51.040;14.414;2023-02-24T07:51:14;4.00;99.90
45761;DHT22;31471;51.040;14.414;2023-02-24T07:53:40;4.30;99.90
45761;DHT22;31471;51.040;14.414;2023-02-24T07:56:10;4.30;99.90
45761;DHT22;31471;51.040;14.414;2023-02-24T07:58:39;4.20;99.90
45761;DHT22;31471;51.040;14.414;2023-02-24T08:01:07;4.30;99.90
45761;DHT22;31471;51.040;14.414;2023-02-24T08:03:37;4.40;99.90
45761;DHT22;31471;51.040;14.414;2023-02-24T08:06:06;4.40;99.90
45761;DHT22;31471;51.040;14.414;2023-02-24T08:08:54;4.40;99.90
45761;DHT22;31471;51.040;14.414;2023-02-24T08:11:42;4.50;99.90
45761;DHT22;31471;51.040;14.414;2023-02-24T08:14:13;4.40;99.90
45761;DHT22;31471;51.040;14.414;2023-02-24T08:16:41;4.30;99.90
45761;DHT22;31471;51.040;14.414;2023-02-24T08:19:13;4.40;99.90
45761;DHT22;31471;51.040;14.414;2023-02-24T08:21:42;4.50;99.90
45761;DHT22;31471;51.040;14.414;2023-02-24T08:24:22;4.60;99.90
45761;DHT22;31471;51.040;14.414;2023-02-24T08:26:52;4.70;99.90
45761;DHT22;31471;51.040;14.414;2023-02-24T08:29:30;4.70;99.90
45761;DHT22;31471;51.040;14.414;2023-02-24T08:31:56;4.80;99.90
45761;DHT22;31471;51.040;14.414;2023-02-24T08:34:23;4.80;99.90
45761;DHT22;31471;51.040;14.414;2023-02-24T08:36:52;4.70;99.90
45761;DHT22;31471;51.040;14.414;2023-02-24T08:39:20;4.80;99.90
45761;DHT22;31471;51.040;14.414;2023-02-24T08:41:47;4.80;99.90
45761;DHT22;31471;51.040;14.414;2023-02-24T08:44:17;4.80;99.90
45761;DHT22;31471;51.040;14.414;2023-02-24T08:46:46;4.70;99.90
45761;DHT22;31471;51.040;14.414;2023-02-24T08:49:17;4.60;99.90
45761;DHT22;31471;51.040;14.414;2023-02-24T08:51:45;4.70;99.90
45761;DHT22;31471;51.040;14.414;2023-02-24T08:54:24;4.50;99.90
45761;DHT22;31471;51.040;14.414;2023-02-24T08:56:53;4.70;99.90
45761;DHT22;31471;51.040;14.414;2023-02-24T08:59:26;4.70;99.90
45761;DHT22;31471;51.040;14.414;2023-02-24T09:02:19;4.70;99.90
45761;DHT22;31471;51.040;14.414;2023-02-24T09:05:03;4.70;99.90
45761;DHT22;31471;51.040;14.414;2023-02-24T09:07:34;4.90;99.90
45761;DHT22;31471;51.040;14.414;2023-02-24T09:10:02;4.90;99.90
45761;DHT22;31471;51.040;14.414;2023-02-24T09:12:29;4.70;99.90
45761;DHT22;31471;51.040;14.414;2023-02-24T09:15:00;4.70;99.90
45761;DHT22;31471;51.040;14.414;2023-02-24T09:17:30;4.50;99.90
45761;DHT22;31471;51.040;14.414;2023-02-24T09:20:06;4.80;99.90
45761;DHT22;31471;51.040;14.414;2023-02-24T09:22:40;4.80;99.90
45761;DHT22;31471;51.040;14.414;2023-02-24T09:25:23;4.60;99.90
45761;DHT22;31471;51.040;14.414;2023-02-24T09:28:03;4.70;99.90
45761;DHT22;31471;51.040;14.414;2023-02-24T09:30:44;4.70;99.90
45761;DHT22;31471;51.040;14.414;2023-02-24T09:33:33;5.00;99.90
45761;DHT22;31471;51.040;14.414;2023-02-24T09:36:11;5.00;99.90
45761;DHT22;31471;51.040;14.414;2023-02-24T09:38:40;5.10;99.90
45761;DHT22;31471;51.040;14.414;2023-02-24T09:41:48;5.20;99.90
45761;DHT22;31471;51.040;14.414;2023-02-24T09:44:39;5.10;99.90
45761;DHT22;31471;51.040;14.414;2023-02-24T09:47:13;5.40;99.90
45761;DHT22;31471;51.040;14.414;2023-02-24T09:49:49;5.50;99.90
45761;DHT22;31471;51.040;14.414;2023-02-24T09:52:22;5.40;99.90
45761;DHT22;31471;51.040;14.414;2023-02-24T09:55:49;5.40;99.90
45761;DHT22;31471;51.040;14.414;2023-02-24T10:03:30;5.10;99.90
45761;DHT22;31471;51.040;14.414;2023-02-24T10:08:58;5.00;99.90
45761;DHT22;31471;51.040;14.414;2023-02-24T10:11:44;5.00;99.90
45761;DHT22;31471;51.040;14.414;2023-02-24T10:14:23;5.20;99.90
45761;DHT22;31471;51.040;14.414;2023-02-24T10:16:50;5.20;99.90
45761;DHT22;31471;51.040;14.414;2023-02-24T10:19:36;5.20;99.90
45761;DHT22;31471;51.040;14.414;2023-02-24T10:25:41;5.70;99.90
45761;DHT22;31471;51.040;14.414;2023-02-24T10:27:59;5.70;99.90
45761;DHT22;31471;51.040;14.414;2023-02-24T10:30:46;6.10;99.90
45761;DHT22;31471;51.040;14.414;2023-02-24T10:33:19;6.10;99.90
45761;DHT22;31471;51.040;14.414;2023-02-24T10:35:45;6.20;99.90
45761;DHT22;31471;51.040;14.414;2023-02-24T10:38:11;6.40;99.90
45761;DHT22;31471;51.040;14.414;2023-02-24T10:40:49;6.50;99.90
45761;DHT22;31471;51.040;14.414;2023-02-24T10:43:23;6.70;99.90
45761;DHT22;31471;51.040;14.414;2023-02-24T10:45:56;6.50;99.90
45761;DHT22;31471;51.040;14.414;2023-02-24T10:48:32;6.70;99.90
45761;DHT22;31471;51.040;14.414;2023-02-24T10:51:09;6.90;99.90
45761;DHT22;31471;51.040;14.414;2023-02-24T10:53:35;7.00;99.90
45761;DHT22;31471;51.040;14.414;2023-02-24T10:56:12;7.10;99.90
45761;DHT22;31471;51.040;14.414;2023-02-24T10:59:14;6.90;99.90
45761;DHT22;31471;51.040;14.414;2023-02-24T11:02:18;6.90;99.90
45761;DHT22;31471;51.040;14.414;2023-02-24T11:04:55;7.10;99.90
45761;DHT22;31471;51.040;14.414;2023-02-24T11:07:24;7.10;99.90
45761;DHT22;31471;51.040;14.414;2023-02-24T11:10:09;7.40;99.90
45761;DHT22;31471;51.040;14.414;2023-02-24T11:12:45;7.40;99.90
45761;DHT22;31471;51.040;14.414;2023-02-24T11:15:34;7.40;99.90
45761;DHT22;31471;51.040;14.414;2023-02-24T11:18:21;7.40;99.90
45761;DHT22;31471;51.040;14.414;2023-02-24T11:20:51;7.40;99.90
45761;DHT22;31471;51.040;14.414;2023-02-24T11:23:25;7.50;99.90
45761;DHT22;31471;51.040;14.414;2023-02-24T11:25:57;7.70;99.90
45761;DHT22;31471;51.040;14.414;2023-02-24T11:34:51;7.70;99.90
45761;DHT22;31471;51.040;14.414;2023-02-24T11:37:35;7.60;99.90
45761;DHT22;31471;51.040;14.414;2023-02-24T11:40:16;7.60;99.90
45761;DHT22;31471;51.040;14.414;2023-02-24T11:42:54;7.50;99.90
45761;DHT22;31471;51.040;14.414;2023-02-24T11:48:26;7.60;99.90
45761;DHT22;31471;51.040;14.414;2023-02-24T11:53:46;7.60;99.90
45761;DHT22;31471;51.040;14.414;2023-02-24T11:56:30;7.50;99.90
45761;DHT22;31471;51.040;14.414;2023-02-24T11:59:07;7.20;99.90
45761;DHT22;31471;51.040;14.414;2023-02-24T12:04:27;7.30;99.90
45761;DHT22;31471;51.040;14.414;2023-02-24T12:07:06;7.30;99.90
45761;DHT22;31471;51.040;14.414;2023-02-24T12:09:48;7.20;99.90
45761;DHT22;31471;51.040;14.414;2023-02-24T12:18:05;7.30;99.90
45761;DHT22;31471;51.040;14.414;2023-02-24T12:20:47;7.00;99.90
45761;DHT22;31471;51.040;14.414;2023-02-24T12:23:15;7.00;99.90
45761;DHT22;31471;51.040;14.414;2023-02-24T12:34:07;7.10;99.90
45761;DHT22;31471;51.040;14.414;2023-02-24T12:39:33;7.00;99.90
45761;DHT22;31471;51.040;14.414;2023-02-24T12:42:21;7.10;99.90
45761;DHT22;31471;51.040;14.414;2023-02-24T12:47:37;7.00;99.90
45761;DHT22;31471;51.040;14.414;2023-02-24T12:55:52;7.20;99.90
45761;DHT22;31471;51.040;14.414;2023-02-24T12:58:27;7.30;99.90
45761;DHT22;31471;51.040;14.414;2023-02-24T13:01:09;7.20;99.90
45761;DHT22;31471;51.040;14.414;2023-02-24T13:03:51;7.20;99.90
45761;DHT22;31471;51.040;14.414;2023-02-24T13:06:44;7.10;99.90
45761;DHT22;31471;51.040;14.414;2023-02-24T13:12:24;7.00;99.90
45761;DHT22;31471;51.040;14.414;2023-02-24T13:14:52;7.10;99.90
45761;DHT22;31471;51.040;14.414;2023-02-24T13:17:23;7.00;99.90
45761;DHT22;31471;51.040;14.414;2023-02-24T13:19:51;6.70;99.90
45761;DHT22;31471;51.040;14.414;2023-02-24T13:22:24;6.70;99.90
45761;DHT22;31471;51.040;14.414;2023-02-24T13:29:46;6.80;99.90
45761;DHT22;31471;51.040;14.414;2023-02-24T13:32:33;6.80;99.90
45761;DHT22;31471;51.040;14.414;2023-02-24T13:37:36;6.70;99.90
45761;DHT22;31471;51.040;14.414;2023-02-24T13:40:31;6.70;99.90
45761;DHT22;31471;51.040;14.414;2023-02-24T13:45:25;6.50;99.90
45761;DHT22;31471;51.040;14.414;2023-02-24T13:51:37;6.50;99.90
45761;DHT22;31471;51.040;14.414;2023-02-24T13:54:30;6.60;99.90
45761;DHT22;31471;51.040;14.414;2023-02-24T13:57:21;6.60;99.90
45761;DHT22;31471;51.040;14.414;2023-02-24T14:00:13;6.50;99.90
45761;DHT22;31471;51.040;14.414;2023-02-24T14:02:46;6.30;99.90
45761;DHT22;31471;51.040;14.414;2023-02-24T14:05:32;6.40;99.90
45761;DHT22;31471;51.040;14.414;2023-02-24T14:07:59;6.30;99.90
45761;DHT22;31471;51.040;14.414;2023-02-24T14:10:29;6.40;99.90
45761;DHT22;31471;51.040;14.414;2023-02-24T14:13:18;6.50;99.90
45761;DHT22;31471;51.040;14.414;2023-02-24T14:15:46;6.60;99.90
45761;DHT22;31471;51.040;14.414;2023-02-24T14:18:19;6.60;99.90
45761;DHT22;31471;51.040;14.414;2023-02-24T14:20:45;6.60;99.90
45761;DHT22;31471;51.040;14.414;2023-02-24T14:23:28;6.60;99.90
45761;DHT22;31471;51.040;14.414;2023-02-24T14:26:04;6.50;99.90
45761;DHT22;31471;51.040;14.414;2023-02-24T14:28:35;6.30;99.90
45761;DHT22;31471;51.040;14.414;2023-02-24T14:31:07;6.50;99.90
45761;DHT22;31471;51.040;14.414;2023-02-24T14:33:36;6.40;99.90
45761;DHT22;31471;51.040;14.414;2023-02-24T14:36:04;6.60;99.90
45761;DHT22;31471;51.040;14.414;2023-02-24T14:38:37;6.60;99.90
45761;DHT22;31471;51.040;14.414;2023-02-24T14:41:21;6.50;99.90
45761;DHT22;31471;51.040;14.414;2023-02-24T14:43:48;6.50;99.90
45761;DHT22;31471;51.040;14.414;2023-02-24T14:46:14;6.50;99.90
45761;DHT22;31471;51.040;14.414;2023-02-24T14:48:42;6.50;99.90
45761;DHT22;31471;51.040;14.414;2023-02-24T14:51:11;6.30;99.90
45761;DHT22;31471;51.040;14.414;2023-02-24T14:53:53;6.50;99.90
45761;DHT22;31471;51.040;14.414;2023-02-24T14:56:24;6.40;99.90
45761;DHT22;31471;51.040;14.414;2023-02-24T14:59:07;6.40;99.90
45761;DHT22;31471;51.040;14.414;2023-02-24T15:01:39;6.40;99.90
45761;DHT22;31471;51.040;14.414;2023-02-24T15:04:22;6.40;99.90
45761;DHT22;31471;51.040;14.414;2023-02-24T15:06:50;6.30;99.90
45761;DHT22;31471;51.040;14.414;2023-02-24T15:09:18;6.40;99.90
45761;DHT22;31471;51.040;14.414;2023-02-24T15:11:46;6.50;99.90
45761;DHT22;31471;51.040;14.414;2023-02-24T15:14:23;6.30;99.90
45761;DHT22;31471;51.040;14.414;2023-02-24T15:16:53;6.30;99.90
45761;DHT22;31471;51.040;14.414;2023-02-24T15:19:26;6.30;99.90
45761;DHT22;31471;51.040;14.414;2023-02-24T15:21:56;6.40;99.90
45761;DHT22;31471;51.040;14.414;2023-02-24T15:24:28;6.40;99.90
45761;DHT22;31471;51.040;14.414;2023-02-24T15:26:58;6.30;99.90
45761;DHT22;31471;51.040;14.414;2023-02-24T15:29:27;6.20;99.90
45761;DHT22;31471;51.040;14.414;2023-02-24T15:31:55;6.10;99.90
45761;DHT22;31471;51.040;14.414;2023-02-24T15:34:27;6.10;99.90
45761;DHT22;31471;51.040;14.414;2023-02-24T15:36:58;6.00;99.90
45761;DHT22;31471;51.040;14.414;2023-02-24T15:39:28;6.00;99.90
45761;DHT22;31471;51.040;14.414;2023-02-24T15:42:08;6.10;99.90
45761;DHT22;31471;51.040;14.414;2023-02-24T15:44:35;6.00;99.90
45761;DHT22;31471;51.040;14.414;2023-02-24T15:47:21;5.80;99.90
45761;DHT22;31471;51.040;14.414;2023-02-24T15:49:47;5.80;99.90
45761;DHT22;31471;51.040;14.414;2023-02-24T15:52:14;5.80;99.90
45761;DHT22;31471;51.040;14.414;2023-02-24T15:54:42;5.80;99.90
45761;DHT22;31471;51.040;14.414;2023-02-24T15:57:14;5.80;99.90
45761;DHT22;31471;51.040;14.414;2023-02-24T15:59:41;5.60;99.90
45761;DHT22;31471;51.040;14.414;2023-02-24T16:02:12;5.60;99.90
45761;DHT22;31471;51.040;14.414;2023-02-24T16:04:40;5.60;99.90
45761;DHT22;31471;51.040;14.414;2023-02-24T16:07:08;5.50;99.90
45761;DHT22;31471;51.040;14.414;2023-02-24T16:09:37;5.40;99.90
45761;DHT22;31471;51.040;14.414;2023-02-24T16:12:07;5.40;99.90
45761;DHT22;31471;51.040;14.414;2023-02-24T16:14:34;5.50;99.90
45761;DHT22;31471;51.040;14.414;2023-02-24T16:17:02;5.30;99.90
45761;DHT22;31471;51.040;14.414;2023-02-24T16:19:28;5.30;99.90
45761;DHT22;31471;51.040;14.414;2023-02-24T16:21:54;5.20;99.90
45761;DHT22;31471;51.040;14.414;2023-02-24T16:24:19;5.20;99.90
45761;DHT22;31471;51.040;14.414;2023-02-24T16:26:45;5.20;99.90
45761;DHT22;31471;51.040;14.414;2023-02-24T16:29:14;5.20;99.90
45761;DHT22;31471;51.040;14.414;2023-02-24T16:31:40;5.20;99.90
45761;DHT22;31471;51.040;14.414;2023-02-24T16:34:06;5.10;99.90
45761;DHT22;31471;51.040;14.414;2023-02-24T16:36:32;5.10;99.90
45761;DHT22;31471;51.040;14.414;2023-02-24T16:38:58;5.00;99.90
45761;DHT22;31471;51.040;14.414;2023-02-24T16:41:23;4.90;99.90
45761;DHT22;31471;51.040;14.414;2023-02-24T16:43:50;4.90;99.90
45761;DHT22;31471;51.040;14.414;2023-02-24T16:46:18;4.90;99.90
45761;DHT22;31471;51.040;14.414;2023-02-24T16:48:46;4.90;99.90
45761;DHT22;31471;51.040;14.414;2023-02-24T16:51:12;5.00;99.90
45761;DHT22;31471;51.040;14.414;2023-02-24T16:53:38;5.00;99.90
45761;DHT22;31471;51.040;14.414;2023-02-24T16:56:04;4.80;99.90
45761;DHT22;31471;51.040;14.414;2023-02-24T16:58:30;4.90;99.90
45761;DHT22;31471;51.040;14.414;2023-02-24T17:00:57;4.90;99.90
45761;DHT22;31471;51.040;14.414;2023-02-24T17:03:30;4.90;99.90
45761;DHT22;31471;51.040;14.414;2023-02-24T17:05:57;4.90;99.90
45761;DHT22;31471;51.040;14.414;2023-02-24T17:08:23;4.90;99.90
45761;DHT22;31471;51.040;14.414;2023-02-24T17:10:49;4.90;99.90
45761;DHT22;31471;51.040;14.414;2023-02-24T17:13:18;4.80;99.90
45761;DHT22;31471;51.040;14.414;2023-02-24T17:15:45;4.90;99.90
45761;DHT22;31471;51.040;14.414;2023-02-24T17:18:12;4.90;99.90
45761;DHT22;31471;51.040;14.414;2023-02-24T17:20:40;4.80;99.90
45761;DHT22;31471;51.040;14.414;2023-02-24T17:23:08;4.80;99.90
45761;DHT22;31471;51.040;14.414;2023-02-24T17:25:33;4.70;99.90
45761;DHT22;31471;51.040;14.414;2023-02-24T17:27:59;4.70;99.90
45761;DHT22;31471;51.040;14.414;2023-02-24T17:30:27;4.60;99.90
45761;DHT22;31471;51.040;14.414;2023-02-24T17:32:54;4.40;99.90
45761;DHT22;31471;51.040;14.414;2023-02-24T17:35:19;4.40;99.90
45761;DHT22;31471;51.040;14.414;2023-02-24T17:37:45;4.40;99.90